createdAt,value
2024-03-20T00:00:56.300Z,22.58
2024-03-20T00:01:56.311Z,22.58
2024-03-20T00:02:56.336Z,22.58
2024-03-20T00:03:56.358Z,22.59
2024-03-20T00:04:56.390Z,22.55
2024-03-20T00:05:56.419Z,22.57
2024-03-20T00:06:56.434Z,22.59
2024-03-20T00:07:56.438Z,22.58
2024-03-20T00:08:56.465Z,22.57
2024-03-20T00:09:56.488Z,22.59
2024-03-20T00:10:56.516Z,22.58
2024-03-20T00:11:56.521Z,22.58
2024-03-20T00:12:56.551Z,22.58
2024-03-20T00:13:56.567Z,22.57
2024-03-20T00:14:56.589Z,22.58
2024-03-20T00:15:56.605Z,22.57
2024-03-20T00:16:56.624Z,22.57
2024-03-20T00:17:56.673Z,22.58
2024-03-20T00:18:56.670Z,22.57
2024-03-20T00:19:56.691Z,22.58
2024-03-20T00:20:56.713Z,22.58
2024-03-20T00:21:56.716Z,22.59
2024-03-20T00:22:56.731Z,22.59
2024-03-20T00:23:56.757Z,22.58
2024-03-20T00:24:56.772Z,22.57
2024-03-20T00:25:56.797Z,22.59
2024-03-20T00:26:56.814Z,22.58
2024-03-20T00:27:56.833Z,22.57
2024-03-20T00:28:56.854Z,22.59
2024-03-20T00:29:56.871Z,22.58
2024-03-20T00:30:56.882Z,22.57
2024-03-20T00:31:56.899Z,22.58
2024-03-20T00:32:56.917Z,22.58
2024-03-20T00:33:56.939Z,22.59
2024-03-20T00:34:56.964Z,22.57
2024-03-20T00:37:57.019Z,22.57
2024-03-20T00:38:57.026Z,22.55
2024-03-20T00:39:57.058Z,22.57
2024-03-20T00:40:57.082Z,22.55
2024-03-20T00:41:57.077Z,22.57
2024-03-20T00:42:57.116Z,22.58
2024-03-20T00:43:57.142Z,22.57
2024-03-20T00:44:57.149Z,22.57
2024-03-20T00:45:57.201Z,22.59
2024-03-20T00:46:57.191Z,22.58
2024-03-20T00:47:57.215Z,22.55
2024-03-20T00:48:57.240Z,22.58
2024-03-20T00:49:57.265Z,22.58
2024-03-20T00:50:57.290Z,22.59
2024-03-20T00:51:57.316Z,22.58
2024-03-20T00:52:57.332Z,22.57
2024-03-20T00:53:57.345Z,22.57
2024-03-20T00:54:57.367Z,22.59
2024-03-20T00:55:57.389Z,22.58
2024-03-20T00:56:57.409Z,22.58
2024-03-20T00:57:57.427Z,22.59
2024-03-20T00:58:57.451Z,22.58
2024-03-20T00:59:57.472Z,22.55
2024-03-20T01:00:57.497Z,22.54
2024-03-20T01:01:57.524Z,22.54
2024-03-20T01:02:57.549Z,22.58
2024-03-20T01:03:57.574Z,22.58
2024-03-20T01:04:58.511Z,22.58
2024-03-20T01:05:57.627Z,22.57
2024-03-20T01:06:57.657Z,22.57
2024-03-20T01:07:57.665Z,22.57
2024-03-20T01:08:57.691Z,22.57
2024-03-20T01:09:57.713Z,22.57
2024-03-20T01:10:57.757Z,22.57
2024-03-20T01:11:57.759Z,22.54
2024-03-20T01:12:57.783Z,22.55
2024-03-20T01:13:57.809Z,22.57
2024-03-20T01:14:57.833Z,22.57
2024-03-20T01:15:57.860Z,22.55
2024-03-20T01:16:57.874Z,22.57
2024-03-20T01:17:57.903Z,22.55
2024-03-20T01:18:57.924Z,22.55
2024-03-20T01:19:57.954Z,22.57
2024-03-20T01:20:57.983Z,22.57
2024-03-20T01:21:57.996Z,22.57
2024-03-20T01:22:58.020Z,22.58
2024-03-20T01:23:58.086Z,22.59
2024-03-20T01:24:58.065Z,22.58
2024-03-20T01:25:58.091Z,22.55
2024-03-20T01:26:58.121Z,22.58
2024-03-20T01:27:58.150Z,22.55
2024-03-20T01:28:58.176Z,22.58
2024-03-20T01:29:58.182Z,22.55
2024-03-20T01:30:58.257Z,22.55
2024-03-20T01:31:58.228Z,22.55
2024-03-20T01:32:58.295Z,22.57
2024-03-20T01:33:58.278Z,22.57
2024-03-20T01:34:58.303Z,22.57
2024-03-20T01:35:58.330Z,22.55
2024-03-20T01:36:58.353Z,22.55
2024-03-20T01:37:58.385Z,22.57
2024-03-20T01:38:58.402Z,22.55
2024-03-20T01:39:58.436Z,22.55
2024-03-20T01:40:58.452Z,22.54
2024-03-20T01:41:58.482Z,22.55
2024-03-20T01:42:58.510Z,22.55
2024-03-20T01:43:58.523Z,22.54
2024-03-20T01:44:58.549Z,22.55
2024-03-20T01:45:58.593Z,22.57
2024-03-20T01:46:58.613Z,22.57
2024-03-20T01:47:58.642Z,22.55
2024-03-20T01:48:58.662Z,22.57
2024-03-20T01:49:58.696Z,22.55
2024-03-20T01:50:58.729Z,22.58
2024-03-20T01:51:58.744Z,22.54
2024-03-20T01:52:58.778Z,22.55
2024-03-20T01:53:58.806Z,22.52
2024-03-20T01:54:58.824Z,22.57
2024-03-20T01:55:58.851Z,22.54
2024-03-20T01:56:58.879Z,22.57
2024-03-20T01:57:58.923Z,22.54
2024-03-20T01:58:58.977Z,22.55
2024-03-20T01:59:59.042Z,22.55
2024-03-20T02:00:59.107Z,22.54
2024-03-20T02:01:59.157Z,22.57
2024-03-20T02:02:59.217Z,22.58
2024-03-20T02:03:59.271Z,22.54
2024-03-20T02:04:59.327Z,22.55
2024-03-20T02:05:59.372Z,22.54
2024-03-20T02:06:59.429Z,22.55
2024-03-20T02:07:59.486Z,22.55
2024-03-20T02:08:59.540Z,22.52
2024-03-20T02:09:59.600Z,22.54
2024-03-20T02:10:59.661Z,22.54
2024-03-20T02:11:59.710Z,22.54
2024-03-20T02:12:59.763Z,22.52
2024-03-20T02:13:59.828Z,22.57
2024-03-20T02:14:59.897Z,22.55
2024-03-20T02:15:59.951Z,22.55
2024-03-20T02:16:59.999Z,22.54
2024-03-20T02:18:00.053Z,22.52
2024-03-20T02:19:00.111Z,22.52
2024-03-20T02:20:00.262Z,22.54
2024-03-20T02:21:00.226Z,22.54
2024-03-20T02:22:00.299Z,22.52
2024-03-20T02:23:00.345Z,22.55
2024-03-20T02:24:00.400Z,22.54
2024-03-20T02:25:00.453Z,22.54
2024-03-20T02:26:00.508Z,22.54
2024-03-20T02:27:00.587Z,22.54
2024-03-20T02:28:00.636Z,22.52
2024-03-20T02:29:00.663Z,22.54
2024-03-20T02:30:00.720Z,22.52
2024-03-20T02:31:00.777Z,22.54
2024-03-20T02:32:00.825Z,22.52
2024-03-20T02:33:00.901Z,22.55
2024-03-20T02:34:00.958Z,22.59
2024-03-20T02:35:00.990Z,22.57
2024-03-20T02:36:01.067Z,22.58
2024-03-20T02:37:01.081Z,22.58
2024-03-20T02:38:01.120Z,22.59
2024-03-20T02:39:01.179Z,22.59
2024-03-20T02:40:01.225Z,22.62
2024-03-20T02:41:01.279Z,22.62
2024-03-20T02:42:01.321Z,22.62
2024-03-20T02:43:01.358Z,22.67
2024-03-20T02:44:01.401Z,22.67
2024-03-20T02:45:01.451Z,22.69
2024-03-20T02:46:01.481Z,22.69
2024-03-20T02:47:01.514Z,22.69
2024-03-20T02:48:01.560Z,22.71
2024-03-20T02:49:01.610Z,22.71
2024-03-20T02:50:01.709Z,22.74
2024-03-20T02:51:01.691Z,22.74
2024-03-20T02:52:01.728Z,22.74
2024-03-20T02:53:01.773Z,22.76
2024-03-20T02:54:01.833Z,22.76
2024-03-20T02:55:01.862Z,22.79
2024-03-20T02:56:01.910Z,22.78
2024-03-20T02:57:01.917Z,22.81
2024-03-20T02:58:01.956Z,22.81
2024-03-20T02:59:01.984Z,22.81
2024-03-20T03:00:02.022Z,22.76
2024-03-20T03:01:02.069Z,22.82
2024-03-20T03:02:02.099Z,22.82
2024-03-20T03:03:02.128Z,22.82
2024-03-20T03:04:02.170Z,22.84
2024-03-20T03:05:02.194Z,22.84
2024-03-20T03:06:02.242Z,22.82
2024-03-20T03:07:03.043Z,22.81
2024-03-20T03:08:02.296Z,22.84
2024-03-20T03:09:02.326Z,22.85
2024-03-20T03:10:02.383Z,22.84
2024-03-20T03:11:02.397Z,22.84
2024-03-20T03:12:02.421Z,22.87
2024-03-20T03:13:02.454Z,22.87
2024-03-20T03:14:02.493Z,22.81
2024-03-20T03:15:07.775Z,22.84
2024-03-20T03:16:03.540Z,22.87
2024-03-20T03:17:02.556Z,22.82
2024-03-20T03:18:02.583Z,22.84
2024-03-20T03:19:02.598Z,22.82
2024-03-20T03:20:02.622Z,22.84
2024-03-20T03:21:02.644Z,22.87
2024-03-20T03:22:02.672Z,22.84
2024-03-20T03:23:02.691Z,22.84
2024-03-20T03:24:02.718Z,22.85
2024-03-20T03:25:02.758Z,22.84
2024-03-20T03:26:02.760Z,22.82
2024-03-20T03:27:02.774Z,22.85
2024-03-20T03:28:02.799Z,22.84
2024-03-20T03:29:02.819Z,22.84
2024-03-20T03:30:02.854Z,22.82
2024-03-20T03:31:02.877Z,22.84
2024-03-20T03:32:02.886Z,22.84
2024-03-20T03:33:02.916Z,22.84
2024-03-20T03:34:02.927Z,22.82
2024-03-20T03:35:02.952Z,22.82
2024-03-20T03:36:02.976Z,22.82
2024-03-20T03:37:02.992Z,22.81
2024-03-20T03:38:03.017Z,22.82
2024-03-20T03:39:03.032Z,22.81
2024-03-20T03:40:03.073Z,22.82
2024-03-20T03:41:03.084Z,22.81
2024-03-20T03:42:03.088Z,22.82
2024-03-20T03:43:04.060Z,22.81
2024-03-20T03:44:03.129Z,22.79
2024-03-20T03:45:03.146Z,22.79
2024-03-20T03:46:03.171Z,22.79
2024-03-20T03:47:03.192Z,22.82
2024-03-20T03:48:03.201Z,22.79
2024-03-20T03:49:03.229Z,22.79
2024-03-20T03:50:03.248Z,22.81
2024-03-20T03:51:03.279Z,22.78
2024-03-20T03:52:03.306Z,22.78
2024-03-20T03:53:03.316Z,22.79
2024-03-20T03:54:03.335Z,22.78
2024-03-20T03:55:03.433Z,22.78
2024-03-20T03:56:03.378Z,22.76
2024-03-20T03:57:03.399Z,22.78
2024-03-20T03:58:03.414Z,22.78
2024-03-20T03:59:03.440Z,22.76
2024-03-20T04:00:03.472Z,22.78
2024-03-20T04:01:03.513Z,22.78
2024-03-20T04:02:03.507Z,22.78
2024-03-20T04:03:03.536Z,22.78
2024-03-20T04:04:03.540Z,22.76
2024-03-20T04:05:03.560Z,22.78
2024-03-20T04:06:03.587Z,22.75
2024-03-20T04:07:03.612Z,22.75
2024-03-20T04:08:03.631Z,22.79
2024-03-20T04:09:03.667Z,22.76
2024-03-20T04:10:03.699Z,22.78
2024-03-20T04:11:03.704Z,22.75
2024-03-20T04:12:03.742Z,22.74
2024-03-20T04:13:03.761Z,22.76
2024-03-20T04:14:03.794Z,22.76
2024-03-20T04:15:03.830Z,22.76
2024-03-20T04:16:03.879Z,22.75
2024-03-20T04:17:03.891Z,22.74
2024-03-20T04:18:03.934Z,22.76
2024-03-20T04:19:03.951Z,22.72
2024-03-20T04:20:03.996Z,22.74
2024-03-20T04:21:04.112Z,22.75
2024-03-20T04:22:04.054Z,22.74
2024-03-20T04:23:04.078Z,22.76
2024-03-20T04:24:04.112Z,22.72
2024-03-20T04:25:04.154Z,22.75
2024-03-20T04:26:04.171Z,22.74
2024-03-20T04:27:04.198Z,22.72
2024-03-20T04:28:04.231Z,22.72
2024-03-20T04:29:04.272Z,22.75
2024-03-20T04:30:04.309Z,22.74
2024-03-20T04:31:04.352Z,22.72
2024-03-20T04:32:04.388Z,22.74
2024-03-20T04:33:04.415Z,22.74
2024-03-20T04:34:04.467Z,22.75
2024-03-20T04:35:04.508Z,22.74
2024-03-20T04:36:04.537Z,22.74
2024-03-20T04:37:04.590Z,22.74
2024-03-20T04:38:04.608Z,22.74
2024-03-20T04:39:04.651Z,22.74
2024-03-20T04:40:11.912Z,22.72
2024-03-20T04:41:11.911Z,22.71
2024-03-20T04:42:11.912Z,22.72
2024-03-20T04:43:11.903Z,22.72
2024-03-20T04:44:11.906Z,22.75
2024-03-20T04:45:11.902Z,22.72
2024-03-20T04:46:11.910Z,22.75
2024-03-20T04:47:11.890Z,22.76
2024-03-20T04:48:11.882Z,22.74
2024-03-20T04:49:11.896Z,22.74
2024-03-20T04:50:11.895Z,22.74
2024-03-20T04:51:11.894Z,22.74
2024-03-20T04:52:11.898Z,22.72
2024-03-20T04:53:11.892Z,22.75
2024-03-20T04:54:11.888Z,22.75
2024-03-20T04:55:11.885Z,22.76
2024-03-20T04:56:11.887Z,22.75
2024-03-20T04:57:11.890Z,22.74
2024-03-20T04:58:11.910Z,22.75
2024-03-20T04:59:11.895Z,22.75
2024-03-20T05:00:11.886Z,22.75
2024-03-20T05:01:11.887Z,22.75
2024-03-20T05:02:11.892Z,22.74
2024-03-20T05:03:11.893Z,22.75
2024-03-20T05:04:11.889Z,22.74
2024-03-20T05:05:11.892Z,22.75
2024-03-20T05:06:11.889Z,22.74
2024-03-20T05:07:11.888Z,22.75
2024-03-20T05:08:11.889Z,22.74
2024-03-20T05:09:11.897Z,22.75
2024-03-20T05:10:11.886Z,22.74
2024-03-20T05:11:11.884Z,22.74
2024-03-20T05:12:11.883Z,22.76
2024-03-20T05:13:11.884Z,22.76
2024-03-20T05:14:11.880Z,22.74
2024-03-20T05:15:11.888Z,22.76
2024-03-20T05:16:11.887Z,22.74
2024-03-20T05:17:11.890Z,22.74
2024-03-20T05:18:11.892Z,22.72
2024-03-20T05:19:11.900Z,22.75
2024-03-20T05:20:11.900Z,22.75
2024-03-20T05:21:11.905Z,22.75
2024-03-20T05:22:11.896Z,22.75
2024-03-20T05:23:11.894Z,22.74
2024-03-20T05:24:11.889Z,22.74
2024-03-20T05:25:11.892Z,22.74
2024-03-20T05:26:11.901Z,22.74
2024-03-20T05:27:11.893Z,22.75
2024-03-20T05:28:11.905Z,22.75
2024-03-20T05:29:11.920Z,22.76
2024-03-20T05:30:11.951Z,22.75
2024-03-20T05:31:12.000Z,22.75
2024-03-20T05:32:12.044Z,22.76
2024-03-20T05:33:12.075Z,22.78
2024-03-20T05:34:12.120Z,22.79
2024-03-20T05:35:12.157Z,22.78
2024-03-20T05:36:12.215Z,22.75
2024-03-20T05:37:12.242Z,22.76
2024-03-20T05:38:12.278Z,22.75
2024-03-20T05:39:12.317Z,22.76
2024-03-20T05:40:12.372Z,22.76
2024-03-20T05:41:12.412Z,22.75
2024-03-20T05:42:12.432Z,22.76
2024-03-20T05:43:12.476Z,22.76
2024-03-20T05:44:12.498Z,22.75
2024-03-20T05:45:12.561Z,22.75
2024-03-20T05:46:12.562Z,22.75
2024-03-20T05:47:12.608Z,22.75
2024-03-20T05:48:12.630Z,22.76
2024-03-20T05:49:12.695Z,22.76
2024-03-20T05:50:12.702Z,22.76
2024-03-20T05:51:12.747Z,22.78
2024-03-20T05:52:15.551Z,22.75
2024-03-20T05:53:12.774Z,22.75
2024-03-20T05:54:12.780Z,22.76
2024-03-20T05:55:12.774Z,22.76
2024-03-20T05:56:12.772Z,22.76
2024-03-20T05:57:12.764Z,22.76
2024-03-20T05:58:12.760Z,22.76
2024-03-20T05:59:12.763Z,22.78
2024-03-20T06:00:12.754Z,22.79
2024-03-20T06:01:12.756Z,22.79
2024-03-20T06:02:12.754Z,22.79
2024-03-20T06:03:12.750Z,22.79
2024-03-20T06:04:12.747Z,22.79
2024-03-20T06:05:12.747Z,22.79
2024-03-20T06:06:12.771Z,22.79
2024-03-20T06:07:12.740Z,22.78
2024-03-20T06:08:12.738Z,22.76
2024-03-20T06:09:15.560Z,22.78
2024-03-20T06:10:12.734Z,22.78
2024-03-20T06:11:12.733Z,22.79
2024-03-20T06:12:12.752Z,22.78
2024-03-20T06:13:12.744Z,22.79
2024-03-20T06:14:12.737Z,22.76
2024-03-20T06:15:12.747Z,22.79
2024-03-20T06:16:12.744Z,22.69
2024-03-20T06:17:12.762Z,22.47
2024-03-20T06:18:12.762Z,22.03
2024-03-20T06:19:12.779Z,21.57
2024-03-20T06:20:12.814Z,21.24
2024-03-20T06:21:12.837Z,20.98
2024-03-20T06:22:12.875Z,20.94
2024-03-20T06:23:12.897Z,21.02
2024-03-20T06:24:12.926Z,21.11
2024-03-20T06:25:12.955Z,21.19
2024-03-20T06:26:12.993Z,21.24
2024-03-20T06:27:13.020Z,21.22
2024-03-20T06:28:13.044Z,21.19
2024-03-20T06:29:13.073Z,21.22
2024-03-20T06:30:13.099Z,21.24
2024-03-20T06:31:14.014Z,21.18
2024-03-20T06:32:13.165Z,21.22
2024-03-20T06:33:13.193Z,21.26
2024-03-20T06:34:13.195Z,21.38
2024-03-20T06:35:13.254Z,21.50
2024-03-20T06:36:13.224Z,21.62
2024-03-20T06:37:13.312Z,21.73
2024-03-20T06:38:13.980Z,21.86
2024-03-20T06:39:13.247Z,21.93
2024-03-20T06:40:15.766Z,22.03
2024-03-20T06:41:13.263Z,22.13
2024-03-20T06:42:13.261Z,22.17
2024-03-20T06:43:13.267Z,22.23
2024-03-20T06:44:13.266Z,22.28
2024-03-20T06:45:13.288Z,22.34
2024-03-20T06:46:13.285Z,22.38
2024-03-20T06:47:13.296Z,22.44
2024-03-20T06:48:13.289Z,22.46
2024-03-20T06:49:13.292Z,22.52
2024-03-20T06:50:13.292Z,22.52
2024-03-20T06:51:13.282Z,22.57
2024-03-20T06:52:13.298Z,22.59
2024-03-20T06:53:13.284Z,22.62
2024-03-20T06:54:13.268Z,22.62
2024-03-20T06:55:13.272Z,22.67
2024-03-20T06:56:13.273Z,22.69
2024-03-20T06:57:13.264Z,22.72
2024-03-20T06:58:13.262Z,22.71
2024-03-20T06:59:13.236Z,22.74
2024-03-20T07:00:13.234Z,22.75
2024-03-20T07:01:13.244Z,22.75
2024-03-20T07:02:14.069Z,22.76
2024-03-20T07:03:13.220Z,22.78
2024-03-20T07:04:13.214Z,22.79
2024-03-20T07:05:13.213Z,22.79
2024-03-20T07:06:13.219Z,22.81
2024-03-20T07:07:13.206Z,22.81
2024-03-20T07:08:13.200Z,22.82
2024-03-20T07:09:13.203Z,22.84
2024-03-20T07:10:13.188Z,22.87
2024-03-20T07:11:13.202Z,22.85
2024-03-20T07:12:13.196Z,22.91
2024-03-20T07:13:13.182Z,22.92
2024-03-20T07:14:13.151Z,22.91
2024-03-20T07:15:13.158Z,22.95
2024-03-20T07:16:13.147Z,22.95
2024-03-20T07:17:13.129Z,22.95
2024-03-20T07:18:13.128Z,22.99
2024-03-20T07:19:13.117Z,23.01
2024-03-20T07:20:13.112Z,22.98
2024-03-20T07:21:13.095Z,22.99
2024-03-20T07:22:13.094Z,23.02
2024-03-20T07:23:13.081Z,22.97
2024-03-20T07:24:13.068Z,22.81
2024-03-20T07:25:13.048Z,22.78
2024-03-20T07:26:13.056Z,22.61
2024-03-20T07:27:13.061Z,22.54
2024-03-20T07:28:13.115Z,22.44
2024-03-20T07:29:13.133Z,22.37
2024-03-20T07:30:13.164Z,22.33
2024-03-20T07:31:13.211Z,22.24
2024-03-20T07:32:13.238Z,22.01
2024-03-20T07:33:13.228Z,21.92
2024-03-20T07:34:14.078Z,21.86
2024-03-20T07:35:13.321Z,21.72
2024-03-20T07:36:13.372Z,21.57
2024-03-20T07:37:13.438Z,21.56
2024-03-20T07:38:13.514Z,21.48
2024-03-20T07:39:13.589Z,21.36
2024-03-20T07:40:13.736Z,21.34
2024-03-20T07:41:13.773Z,21.29
2024-03-20T07:42:14.610Z,21.36
2024-03-20T07:43:13.894Z,21.53
2024-03-20T07:44:13.946Z,21.75
2024-03-20T07:45:13.963Z,21.93
2024-03-20T07:46:13.966Z,22.16
2024-03-20T07:47:13.991Z,22.37
2024-03-20T07:48:14.011Z,22.52
2024-03-20T07:49:14.034Z,22.71
2024-03-20T07:50:14.010Z,22.85
2024-03-20T07:51:14.013Z,22.98
2024-03-20T07:52:14.010Z,23.06
2024-03-20T07:53:14.004Z,23.18
2024-03-20T07:54:13.977Z,23.27
2024-03-20T07:55:13.978Z,23.36
2024-03-20T07:56:13.980Z,23.42
2024-03-20T07:57:13.978Z,23.49
2024-03-20T07:58:13.960Z,23.53
2024-03-20T07:59:14.906Z,23.60
2024-03-20T08:00:13.931Z,23.60
2024-03-20T08:01:13.869Z,23.66
2024-03-20T08:02:13.851Z,23.74
2024-03-20T08:03:13.865Z,23.71
2024-03-20T08:04:13.801Z,23.81
2024-03-20T08:05:13.784Z,23.85
2024-03-20T08:06:13.784Z,23.84
2024-03-20T08:07:13.731Z,23.87
2024-03-20T08:08:14.598Z,23.90
2024-03-20T08:09:13.673Z,23.88
2024-03-20T08:10:14.112Z,23.91
2024-03-20T08:11:13.693Z,23.97
2024-03-20T08:12:13.646Z,23.97
2024-03-20T08:13:13.692Z,23.97
2024-03-20T08:14:13.741Z,23.88
2024-03-20T08:15:13.803Z,23.81
2024-03-20T08:16:13.782Z,23.80
2024-03-20T08:17:13.808Z,23.76
2024-03-20T08:18:13.790Z,23.73
2024-03-20T08:19:13.777Z,23.71
2024-03-20T08:20:13.929Z,23.70
2024-03-20T08:21:13.769Z,23.66
2024-03-20T08:22:13.754Z,23.63
2024-03-20T08:23:14.617Z,23.67
2024-03-20T08:24:15.004Z,23.74
2024-03-20T08:25:13.708Z,23.73
2024-03-20T08:26:13.721Z,23.80
2024-03-20T08:27:13.793Z,23.83
2024-03-20T08:28:13.813Z,23.87
2024-03-20T08:29:13.843Z,23.90
2024-03-20T08:30:13.884Z,23.94
2024-03-20T08:31:14.710Z,23.96
2024-03-20T08:32:13.953Z,24.00
2024-03-20T08:33:14.000Z,24.04
2024-03-20T08:34:14.048Z,24.03
2024-03-20T08:35:14.607Z,24.04
2024-03-20T08:36:14.129Z,24.07
2024-03-20T08:37:14.198Z,24.05
2024-03-20T08:38:14.195Z,24.10
2024-03-20T08:39:14.249Z,24.12
2024-03-20T08:40:14.250Z,24.14
2024-03-20T08:41:14.304Z,24.11
2024-03-20T08:42:14.461Z,24.15
2024-03-20T08:43:20.022Z,24.17
2024-03-20T08:44:15.369Z,24.17
2024-03-20T08:45:14.320Z,24.20
2024-03-20T08:46:14.245Z,24.21
2024-03-20T08:47:14.217Z,24.21
2024-03-20T08:48:14.182Z,24.21
2024-03-20T08:49:14.151Z,24.28
2024-03-20T08:50:14.208Z,24.28
2024-03-20T08:51:14.086Z,24.31
2024-03-20T08:52:14.120Z,24.31
2024-03-20T08:53:14.036Z,24.31
2024-03-20T08:54:14.057Z,24.36
2024-03-20T08:55:14.097Z,24.34
2024-03-20T08:56:14.098Z,24.32
2024-03-20T08:57:14.118Z,24.36
2024-03-20T08:58:15.130Z,24.34
2024-03-20T08:59:14.151Z,24.35
2024-03-20T09:00:15.125Z,24.35
2024-03-20T09:01:14.656Z,24.34
2024-03-20T09:02:14.211Z,24.36
2024-03-20T09:03:14.790Z,24.31
2024-03-20T09:04:14.232Z,24.32
2024-03-20T09:05:16.033Z,24.35
2024-03-20T09:06:14.270Z,24.34
2024-03-20T09:07:14.289Z,24.31
2024-03-20T09:08:14.295Z,24.36
2024-03-20T09:09:14.316Z,24.35
2024-03-20T09:10:14.349Z,24.39
2024-03-20T09:11:14.454Z,24.36
2024-03-20T09:12:14.385Z,24.30
2024-03-20T09:13:14.395Z,24.32
2024-03-20T09:14:15.060Z,24.34
2024-03-20T09:15:14.420Z,24.36
2024-03-20T09:16:14.513Z,24.35
2024-03-20T09:17:14.624Z,24.32
2024-03-20T09:18:14.532Z,24.24
2024-03-20T09:19:14.562Z,24.15
2024-03-20T09:20:14.563Z,24.10
2024-03-20T09:21:14.643Z,24.10
2024-03-20T09:22:15.167Z,24.10
2024-03-20T09:23:14.627Z,24.03
2024-03-20T09:24:15.137Z,24.08
2024-03-20T09:25:14.606Z,24.15
2024-03-20T09:26:14.596Z,24.05
2024-03-20T09:27:14.584Z,24.01
2024-03-20T09:28:14.597Z,23.97
2024-03-20T09:29:14.555Z,23.96
2024-03-20T09:30:14.552Z,23.93
2024-03-20T09:31:14.567Z,24.03
2024-03-20T09:32:15.127Z,24.12
2024-03-20T09:33:14.610Z,24.14
2024-03-20T09:34:14.692Z,24.15
2024-03-20T09:35:14.647Z,24.20
2024-03-20T09:36:14.649Z,24.25
2024-03-20T09:37:14.688Z,24.30
2024-03-20T09:38:14.722Z,24.31
2024-03-20T09:39:15.630Z,24.34
2024-03-20T09:40:15.632Z,24.36
2024-03-20T09:41:14.832Z,24.35
2024-03-20T09:42:14.887Z,24.44
2024-03-20T09:43:18.430Z,24.48
2024-03-20T09:44:14.834Z,24.50
2024-03-20T09:45:14.798Z,24.51
2024-03-20T09:46:14.796Z,24.51
2024-03-20T09:47:14.757Z,24.52
2024-03-20T09:48:21.640Z,24.55
2024-03-20T09:49:15.718Z,24.54
2024-03-20T09:50:14.693Z,24.59
2024-03-20T09:51:14.663Z,24.58
2024-03-20T09:52:14.652Z,24.61
2024-03-20T09:53:14.609Z,24.65
2024-03-20T09:54:15.132Z,24.63
2024-03-20T09:55:14.564Z,24.65
2024-03-20T09:56:14.570Z,24.66
2024-03-20T09:57:14.506Z,24.69
2024-03-20T09:58:14.490Z,24.69
2024-03-20T09:59:14.439Z,24.71
2024-03-20T10:00:14.439Z,24.59
2024-03-20T10:01:14.469Z,24.66
2024-03-20T10:02:14.496Z,24.66
2024-03-20T10:03:14.512Z,24.68
2024-03-20T10:04:14.546Z,24.69
2024-03-20T10:05:14.550Z,24.68
2024-03-20T10:06:14.576Z,24.68
2024-03-20T10:07:14.598Z,24.65
2024-03-20T10:08:14.608Z,24.69
2024-03-20T10:09:14.630Z,24.71
2024-03-20T10:10:14.685Z,24.73
2024-03-20T10:11:14.691Z,24.71
2024-03-20T10:12:15.669Z,24.71
2024-03-20T10:13:14.693Z,24.68
2024-03-20T10:14:14.713Z,24.66
2024-03-20T10:15:14.728Z,24.68
2024-03-20T10:16:22.611Z,24.63
2024-03-20T10:17:15.729Z,24.66
2024-03-20T10:18:14.696Z,24.71
2024-03-20T10:19:14.668Z,24.68
2024-03-20T10:20:14.639Z,24.71
2024-03-20T10:21:14.613Z,24.72
2024-03-20T10:22:14.595Z,24.72
2024-03-20T10:23:14.568Z,24.71
2024-03-20T10:24:14.554Z,24.72
2024-03-20T10:25:14.527Z,24.75
2024-03-20T10:26:14.510Z,24.76
2024-03-20T10:27:14.484Z,24.76
2024-03-20T10:28:14.450Z,24.76
2024-03-20T10:29:20.252Z,24.79
2024-03-20T10:30:24.898Z,24.82
2024-03-20T10:31:26.391Z,24.83
2024-03-20T10:32:15.357Z,24.81
2024-03-20T10:33:14.327Z,24.86
2024-03-20T10:34:15.074Z,24.86
2024-03-20T10:35:14.277Z,24.87
2024-03-20T10:36:14.243Z,24.89
2024-03-20T10:37:14.216Z,24.89
2024-03-20T10:38:14.199Z,24.89
2024-03-20T10:39:21.924Z,24.90
2024-03-20T10:40:15.145Z,24.87
2024-03-20T10:41:14.105Z,24.90
2024-03-20T10:42:14.083Z,24.89
2024-03-20T10:43:14.051Z,24.89
2024-03-20T10:44:14.034Z,24.89
2024-03-20T10:45:14.026Z,24.90
2024-03-20T10:46:13.979Z,24.90
2024-03-20T10:47:14.181Z,24.90
2024-03-20T10:48:13.933Z,24.86
2024-03-20T10:49:13.914Z,24.89
2024-03-20T10:50:13.870Z,24.89
2024-03-20T10:51:13.835Z,24.92
2024-03-20T10:52:13.809Z,24.93
2024-03-20T10:53:13.769Z,24.93
2024-03-20T10:54:13.730Z,24.93
2024-03-20T10:55:13.694Z,24.90
2024-03-20T10:56:13.671Z,24.96
2024-03-20T10:57:13.636Z,24.89
2024-03-20T10:58:13.590Z,24.93
2024-03-20T10:59:13.560Z,24.92
2024-03-20T11:00:13.561Z,24.95
2024-03-20T11:01:14.159Z,24.96
2024-03-20T11:02:13.472Z,25.00
2024-03-20T11:03:13.429Z,25.03
2024-03-20T11:04:13.402Z,25.02
2024-03-20T11:05:13.355Z,25.05
2024-03-20T11:06:13.338Z,25.06
2024-03-20T11:07:13.322Z,25.12
2024-03-20T11:08:13.312Z,25.13
2024-03-20T11:09:13.302Z,25.16
2024-03-20T11:10:13.290Z,25.14
2024-03-20T11:11:15.088Z,25.13
2024-03-20T11:12:14.244Z,25.09
2024-03-20T11:13:13.216Z,25.03
2024-03-20T11:14:14.176Z,24.97
2024-03-20T11:15:13.144Z,24.90
2024-03-20T11:16:13.103Z,24.86
2024-03-20T11:17:13.082Z,24.85
2024-03-20T11:18:13.054Z,24.81
2024-03-20T11:19:13.776Z,24.79
2024-03-20T11:20:12.962Z,24.76
2024-03-20T11:21:12.966Z,24.71
2024-03-20T11:22:15.084Z,24.69
2024-03-20T11:23:12.889Z,24.68
2024-03-20T11:24:12.875Z,24.66
2024-03-20T11:25:12.848Z,24.63
2024-03-20T11:26:12.797Z,24.63
2024-03-20T11:27:12.772Z,24.63
2024-03-20T11:28:12.822Z,24.61
2024-03-20T11:29:12.717Z,24.59
2024-03-20T11:30:12.756Z,24.56
2024-03-20T11:31:12.670Z,24.52
2024-03-20T11:32:12.640Z,24.52
2024-03-20T11:33:12.609Z,24.50
2024-03-20T11:34:12.585Z,24.47
2024-03-20T11:35:12.681Z,24.47
2024-03-20T11:36:13.098Z,24.45
2024-03-20T11:37:13.167Z,24.41
2024-03-20T11:38:12.502Z,24.39
2024-03-20T11:39:12.468Z,24.38
2024-03-20T11:40:12.457Z,24.39
2024-03-20T11:41:12.414Z,24.36
2024-03-20T11:42:12.388Z,24.36
2024-03-20T11:43:12.383Z,24.34
2024-03-20T11:44:15.669Z,24.31
2024-03-20T11:45:12.335Z,24.32
2024-03-20T11:46:12.311Z,24.27
2024-03-20T11:47:16.872Z,24.28
2024-03-20T11:48:13.277Z,24.28
2024-03-20T11:49:13.180Z,24.25
2024-03-20T11:50:12.239Z,24.25
2024-03-20T11:51:13.177Z,24.27
2024-03-20T11:52:13.176Z,24.24
2024-03-20T11:53:12.165Z,24.24
2024-03-20T11:54:12.140Z,24.24
2024-03-20T11:55:12.122Z,24.20
2024-03-20T11:56:12.100Z,24.22
2024-03-20T11:57:12.144Z,24.24
2024-03-20T11:58:12.193Z,24.22
2024-03-20T11:59:12.248Z,24.24
2024-03-20T12:00:12.290Z,24.21
2024-03-20T12:01:12.336Z,24.21
2024-03-20T12:02:12.396Z,24.22
2024-03-20T12:03:12.426Z,24.22
2024-03-20T12:04:12.500Z,24.22
2024-03-20T12:05:12.551Z,24.22
2024-03-20T12:06:12.572Z,24.21
2024-03-20T12:07:12.632Z,24.22
2024-03-20T12:08:12.677Z,24.22
2024-03-20T12:09:12.733Z,24.22
2024-03-20T12:10:12.784Z,24.21
2024-03-20T12:11:12.902Z,24.22
2024-03-20T12:12:12.985Z,24.21
2024-03-20T12:13:12.945Z,24.20
2024-03-20T12:14:13.080Z,24.20
2024-03-20T12:15:13.085Z,24.21
2024-03-20T12:16:13.183Z,24.20
2024-03-20T12:17:13.158Z,24.22
2024-03-20T12:18:13.212Z,24.21
2024-03-20T12:19:13.258Z,24.20
2024-03-20T12:20:13.323Z,24.21
2024-03-20T12:21:13.357Z,24.21
2024-03-20T12:22:13.406Z,24.20
2024-03-20T12:23:13.489Z,24.21
2024-03-20T12:24:13.508Z,24.21
2024-03-20T12:25:13.579Z,24.20
2024-03-20T12:26:13.619Z,24.18
2024-03-20T12:27:13.661Z,24.20
2024-03-20T12:28:13.715Z,24.20
2024-03-20T12:29:13.780Z,24.20
2024-03-20T12:30:13.829Z,24.21
2024-03-20T12:31:13.872Z,24.20
2024-03-20T12:32:13.914Z,24.17
2024-03-20T12:33:13.962Z,24.21
2024-03-20T12:34:14.019Z,24.21
2024-03-20T12:35:14.085Z,24.20
2024-03-20T12:36:14.121Z,24.24
2024-03-20T12:37:14.171Z,24.20
2024-03-20T12:38:14.220Z,24.20
2024-03-20T12:39:14.260Z,24.18
2024-03-20T12:40:14.319Z,24.15
2024-03-20T12:41:14.366Z,24.18
2024-03-20T12:42:14.448Z,24.20
2024-03-20T12:43:14.475Z,24.18
2024-03-20T12:44:14.519Z,24.17
2024-03-20T12:45:14.588Z,24.18
2024-03-20T12:46:14.617Z,24.17
2024-03-20T12:47:14.663Z,24.18
2024-03-20T12:48:14.690Z,24.15
2024-03-20T12:49:14.700Z,24.39
2024-03-20T12:50:14.708Z,24.93
2024-03-20T12:51:14.760Z,25.14
2024-03-20T12:52:14.794Z,25.20
2024-03-20T12:53:14.813Z,25.05
2024-03-20T12:54:14.825Z,24.90
2024-03-20T12:55:14.826Z,25.09